Time;durP1;ratioP1;P1;durP2;ratioP2;P2;SDS_P1;SDS_P2;PMS_P1;PMS_P2;Temp;Humidity;BMP_temperature;BMP_pressure;BME280_temperature;BME280_humidity;BME280_pressure;Samples;Min_cycle;Max_cycle;Signal;HPM_P1;HPM_P2
2021/06/26 00:02:05;;;;;;;63.00;45.65;;;;;;;;;;5035303;28;20402;-62
2021/06/26 00:04:51;;;;;;;71.25;48.88;;;;;;;;;;5035062;28;20222;-62
2021/06/26 00:07:36;;;;;;;58.67;43.97;;;;;;;;;;5034591;28;20507;-62
2021/06/26 00:10:21;;;;;;;57.15;44.30;;;;;;;;;;5032979;28;20195;-62
2021/06/26 00:13:07;;;;;;;63.05;45.75;;;;;;;;;;5034928;28;20045;-62
2021/06/26 00:15:53;;;;;;;70.13;47.90;;;;;;;;;;5033944;28;20049;-62
2021/06/26 00:18:38;;;;;;;63.33;44.30;;;;;;;;;;5034484;28;20435;-62
2021/06/26 00:21:23;;;;;;;63.65;46.80;;;;;;;;;;5018947;28;20053;-62
2021/06/26 00:24:09;;;;;;;65.50;47.00;;;;;;;;;;5034572;28;20127;-62
2021/06/26 00:26:54;;;;;;;74.05;50.72;;;;;;;;;;5034404;28;20049;-62
2021/06/26 00:29:39;;;;;;;76.38;51.88;;;;;;;;;;5034274;28;20049;-62
2021/06/26 00:32:25;;;;;;;65.80;48.65;;;;;;;;;;5033593;28;20088;-62
2021/06/26 00:35:11;;;;;;;61.28;45.63;;;;;;;;;;5034256;28;20128;-62
2021/06/26 00:37:56;;;;;;;64.63;45.78;;;;;;;;;;5034411;28;20053;-62
2021/06/26 00:40:42;;;;;;;65.35;45.38;;;;;;;;;;5032270;28;20060;-62
2021/06/26 00:43:27;;;;;;;59.03;42.10;;;;;;;;;;5034109;28;20088;-62
2021/06/26 00:46:13;;;;;;;61.55;43.28;;;;;;;;;;5033347;28;20053;-62
2021/06/26 00:48:58;;;;;;;76.80;48.60;;;;;;;;;;5033479;28;20436;-62
2021/06/26 00:51:44;;;;;;;63.70;45.58;;;;;;;;;;5033030;28;20143;-62
2021/06/26 00:54:29;;;;;;;62.80;45.83;;;;;;;;;;5033944;28;20172;-62
2021/06/26 00:57:14;;;;;;;67.47;48.95;;;;;;;;;;5033868;28;20060;-62
2021/06/26 01:00:00;;;;;;;72.35;49.88;;;;;;;;;;5033688;28;20057;-62
2021/06/26 01:02:45;;;;;;;69.07;49.42;;;;;;;;;;5017263;28;20131;-62
2021/06/26 01:05:30;;;;;;;72.10;49.88;;;;;;;;;;5019016;28;20056;-62
2021/06/26 01:08:16;;;;;;;70.20;50.67;;;;;;;;;;5033647;28;20045;-62
2021/06/26 01:11:01;;;;;;;70.15;50.00;;;;;;;;;;5033316;28;20049;-62
2021/06/26 01:13:47;;;;;;;67.88;48.15;;;;;;;;;;5033055;28;20052;-62
2021/06/26 01:16:33;;;;;;;67.93;50.10;;;;;;;;;;5033495;28;20060;-62
2021/06/26 01:19:18;;;;;;;67.30;46.97;;;;;;;;;;5033205;28;20085;-63
2021/06/26 01:22:06;;;;;;;65.65;48.60;;;;;;;;;;5032767;28;20061;-63
2021/06/26 01:24:51;;;;;;;71.22;49.65;;;;;;;;;;5033269;28;20049;-62
2021/06/26 01:27:36;;;;;;;73.68;48.92;;;;;;;;;;5033226;28;20057;-62
2021/06/26 01:30:48;;;;;;;56.13;43.42;;;;;;;;;;5032056;28;20041;-63
2021/06/26 01:33:33;;;;;;;56.58;44.17;;;;;;;;;;5033262;28;20052;-63
2021/06/26 01:36:19;;;;;;;58.78;45.63;;;;;;;;;;5033345;28;20064;-62
2021/06/26 01:39:04;;;;;;;61.03;46.00;;;;;;;;;;5032897;28;20049;-62
2021/06/26 01:41:49;;;;;;;62.72;45.40;;;;;;;;;;5032147;28;20140;-63
2021/06/26 01:44:35;;;;;;;63.20;46.67;;;;;;;;;;5033061;28;20049;-63
2021/06/26 01:47:20;;;;;;;59.42;47.17;;;;;;;;;;5032979;28;20064;-63
2021/06/26 01:50:06;;;;;;;58.38;45.20;;;;;;;;;;5032677;28;20046;-63
2021/06/26 01:52:51;;;;;;;62.17;45.38;;;;;;;;;;5031996;28;20127;-62
2021/06/26 01:55:37;;;;;;;64.30;47.45;;;;;;;;;;5032936;28;20188;-62
2021/06/26 01:58:24;;;;;;;62.15;44.63;;;;;;;;;;5032701;28;20107;-63
2021/06/26 02:01:09;;;;;;;66.47;47.20;;;;;;;;;;5031279;28;20053;-63
2021/06/26 02:03:55;;;;;;;64.15;47.33;;;;;;;;;;5032665;28;20049;-62
2021/06/26 02:06:40;;;;;;;63.55;47.20;;;;;;;;;;5032661;28;20048;-63
2021/06/26 02:09:25;;;;;;;64.93;46.72;;;;;;;;;;5032104;28;20248;-62
2021/06/26 02:12:11;;;;;;;59.60;44.78;;;;;;;;;;5031546;28;20069;-63
2021/06/26 02:14:56;;;;;;;52.00;42.33;;;;;;;;;;5032212;28;20052;-63
2021/06/26 02:17:42;;;;;;;54.65;42.92;;;;;;;;;;5032125;28;20056;-63
2021/06/26 02:20:28;;;;;;;58.22;44.65;;;;;;;;;;5032324;28;20048;-62
2021/06/26 02:23:13;;;;;;;56.55;43.35;;;;;;;;;;5030368;28;20052;-62
2021/06/26 02:25:58;;;;;;;56.28;42.92;;;;;;;;;;5030954;28;20120;-62
2021/06/26 02:28:44;;;;;;;54.95;41.65;;;;;;;;;;5031844;28;20100;-62
2021/06/26 02:31:29;;;;;;;67.15;48.38;;;;;;;;;;5032036;28;20038;-62
2021/06/26 02:34:15;;;;;;;68.22;48.65;;;;;;;;;;5016475;28;20052;-64
2021/06/26 02:37:02;;;;;;;74.45;48.38;;;;;;;;;;5015250;28;20053;-62
2021/06/26 02:39:47;;;;;;;66.05;48.58;;;;;;;;;;5012007;28;20052;-62
2021/06/26 02:42:32;;;;;;;55.72;42.83;;;;;;;;;;5013669;28;20080;-62
2021/06/26 02:45:18;;;;;;;53.30;41.88;;;;;;;;;;5031976;28;20045;-62
2021/06/26 02:48:05;;;;;;;59.28;44.30;;;;;;;;;;5031911;28;20046;-61
2021/06/26 02:50:51;;;;;;;72.10;49.85;;;;;;;;;;5031583;28;20053;-61
2021/06/26 02:53:36;;;;;;;55.80;42.28;;;;;;;;;;5031090;28;20534;-62
2021/06/26 02:56:22;;;;;;;53.58;42.10;;;;;;;;;;5017224;28;20053;-61
2021/06/26 02:59:07;;;;;;;56.35;42.67;;;;;;;;;;5031745;28;20109;-62
2021/06/26 03:01:52;;;;;;;63.03;45.50;;;;;;;;;;5016934;28;20046;-62
2021/06/26 03:04:37;;;;;;;71.35;49.33;;;;;;;;;;5031046;28;20126;-61
2021/06/26 03:07:23;;;;;;;59.92;43.97;;;;;;;;;;5031461;28;20052;-62
2021/06/26 03:10:08;;;;;;;56.92;41.92;;;;;;;;;;5031784;28;20052;-62
2021/06/26 03:12:53;;;;;;;58.75;42.92;;;;;;;;;;5031528;28;20056;-62
2021/06/26 03:15:39;;;;;;;61.17;45.72;;;;;;;;;;5028707;28;20041;-62
2021/06/26 03:18:25;;;;;;;68.28;47.75;;;;;;;;;;5031079;28;20042;-62
2021/06/26 03:21:11;;;;;;;69.60;49.65;;;;;;;;;;5031373;28;20052;-62
2021/06/26 03:23:57;;;;;;;66.80;49.00;;;;;;;;;;5030588;28;20095;-62
2021/06/26 03:26:46;;;;;;;63.70;46.78;;;;;;;;;;5035667;28;20050;-62
2021/06/26 03:29:31;;;;;;;56.83;44.25;;;;;;;;;;5035508;28;20050;-62
2021/06/26 03:32:17;;;;;;;62.40;45.65;;;;;;;;;;5035360;28;20073;-62
2021/06/26 03:35:02;;;;;;;65.55;45.67;;;;;;;;;;5034447;28;20488;-62
2021/06/26 03:37:49;;;;;;;58.25;42.65;;;;;;;;;;5035184;28;20504;-62
2021/06/26 03:40:35;;;;;;;62.15;45.55;;;;;;;;;;5033981;28;20053;-62
2021/06/26 03:43:20;;;;;;;62.05;44.55;;;;;;;;;;5035225;28;20045;-62
2021/06/26 03:46:07;;;;;;;59.45;43.92;;;;;;;;;;5035421;28;20054;-62
2021/06/26 03:48:52;;;;;;;59.25;44.03;;;;;;;;;;5035059;28;20049;-62
2021/06/26 03:51:39;;;;;;;64.57;45.60;;;;;;;;;;5035025;28;20050;-62
2021/06/26 03:54:44;;;;;;;59.30;44.90;;;;;;;;;;5018286;28;20057;-62
2021/06/26 03:57:31;;;;;;;63.40;48.25;;;;;;;;;;5034823;28;20499;-62
2021/06/26 04:00:18;;;;;;;57.83;44.95;;;;;;;;;;5033384;28;20484;-62
2021/06/26 04:03:03;;;;;;;62.45;45.30;;;;;;;;;;5034831;28;20522;-62
2021/06/26 04:05:50;;;;;;;61.38;44.15;;;;;;;;;;5034885;28;20046;-62
2021/06/26 04:08:35;;;;;;;62.03;44.63;;;;;;;;;;5074540;22;20510;-65
2021/06/26 04:11:40;;;;;;;73.88;49.58;;;;;;;;;;5018667;28;20046;-65
2021/06/26 04:14:26;;;;;;;73.35;48.10;;;;;;;;;;5034634;28;20384;-64
2021/06/26 04:17:11;;;;;;;63.85;45.40;;;;;;;;;;5033917;28;20081;-64
2021/06/26 04:19:57;;;;;;;62.47;45.50;;;;;;;;;;5014592;28;20050;-65
2021/06/26 04:22:45;;;;;;;71.57;48.17;;;;;;;;;;4995104;28;20065;-65
2021/06/26 04:25:32;;;;;;;66.90;47.30;;;;;;;;;;4995111;28;20046;-64
2021/06/26 04:28:17;;;;;;;66.05;45.08;;;;;;;;;;4995249;28;20060;-65
2021/06/26 04:31:06;;;;;;;64.63;45.95;;;;;;;;;;4985555;28;20046;-64
2021/06/26 04:33:52;;;;;;;59.10;44.85;;;;;;;;;;5014783;28;20201;-65
2021/06/26 04:36:37;;;;;;;65.10;46.42;;;;;;;;;;5013575;28;20050;-65
2021/06/26 04:39:22;;;;;;;66.50;46.65;;;;;;;;;;5014293;28;20065;-65
2021/06/26 04:42:08;;;;;;;64.93;45.83;;;;;;;;;;5013270;28;20108;-65
2021/06/26 04:44:53;;;;;;;67.20;47.05;;;;;;;;;;5014389;28;20041;-64
2021/06/26 04:47:41;;;;;;;63.47;44.95;;;;;;;;;;5014178;28;20529;-65
2021/06/26 04:50:26;;;;;;;60.65;44.53;;;;;;;;;;5014019;28;20136;-64
2021/06/26 04:53:12;;;;;;;62.40;44.70;;;;;;;;;;5012526;28;20135;-65
2021/06/26 04:55:57;;;;;;;59.92;43.88;;;;;;;;;;5013952;28;20052;-65
2021/06/26 04:58:43;;;;;;;54.95;42.85;;;;;;;;;;5014264;28;20053;-65
2021/06/26 05:01:28;;;;;;;58.75;42.42;;;;;;;;;;5012882;28;20104;-64
2021/06/26 05:04:13;;;;;;;60.83;43.22;;;;;;;;;;5013875;28;20431;-64
2021/06/26 05:06:59;;;;;;;58.35;45.70;;;;;;;;;;4999189;28;20049;-65
2021/06/26 05:09:44;;;;;;;61.45;45.75;;;;;;;;;;5013662;28;20052;-64
2021/06/26 05:12:29;;;;;;;59.17;44.30;;;;;;;;;;5011546;28;20590;-64
2021/06/26 05:15:15;;;;;;;56.80;43.33;;;;;;;;;;5013944;28;20515;-65
2021/06/26 05:18:01;;;;;;;55.90;43.97;;;;;;;;;;5013878;28;20048;-65
2021/06/26 05:20:46;;;;;;;56.63;45.47;;;;;;;;;;4998029;28;20452;-65
2021/06/26 05:23:32;;;;;;;56.53;46.10;;;;;;;;;;5013631;28;20046;-64
2021/06/26 05:26:17;;;;;;;57.50;43.47;;;;;;;;;;5013666;28;20416;-65
2021/06/26 05:29:02;;;;;;;52.50;43.50;;;;;;;;;;5013688;28;20637;-65
2021/06/26 05:31:48;;;;;;;50.78;43.22;;;;;;;;;;5012700;28;20050;-64
2021/06/26 05:34:33;;;;;;;52.13;44.38;;;;;;;;;;5013687;28;20057;-65
2021/06/26 05:37:19;;;;;;;53.60;43.15;;;;;;;;;;5013320;28;20053;-65
2021/06/26 05:40:04;;;;;;;53.17;42.92;;;;;;;;;;5013323;28;20065;-66
2021/06/26 05:42:50;;;;;;;57.85;43.63;;;;;;;;;;5012855;28;20053;-66
2021/06/26 05:45:35;;;;;;;54.35;42.97;;;;;;;;;;5013237;28;20519;-65
2021/06/26 05:48:21;;;;;;;49.85;41.97;;;;;;;;;;5013407;28;20056;-65
2021/06/26 05:51:06;;;;;;;52.03;41.03;;;;;;;;;;5013104;28;20048;-66
2021/06/26 05:53:51;;;;;;;54.17;41.80;;;;;;;;;;5013375;28;20061;-65
2021/06/26 05:56:37;;;;;;;51.30;41.75;;;;;;;;;;5013224;28;20057;-65
2021/06/26 05:59:22;;;;;;;52.92;41.97;;;;;;;;;;5012980;28;20132;-66
2021/06/26 06:02:12;;;;;;;48.25;39.75;;;;;;;;;;5012185;28;20126;-65
2021/06/26 06:04:58;;;;;;;47.85;40.63;;;;;;;;;;5012793;28;20093;-65
2021/06/26 06:07:43;;;;;;;49.15;40.25;;;;;;;;;;5012809;28;20056;-66
2021/06/26 06:10:29;;;;;;;48.65;38.60;;;;;;;;;;5012475;28;20070;-66
2021/06/26 06:13:19;;;;;;;49.90;40.33;;;;;;;;;;5011864;28;20052;-65
2021/06/26 06:16:04;;;;;;;49.00;40.42;;;;;;;;;;5012863;28;20120;-65
2021/06/26 06:18:50;;;;;;;46.15;38.25;;;;;;;;;;5012833;28;20049;-66
2021/06/26 06:21:36;;;;;;;49.30;39.17;;;;;;;;;;5012210;28;20049;-66
2021/06/26 06:24:21;;;;;;;46.80;39.92;;;;;;;;;;5011681;28;20046;-66
2021/06/26 06:27:06;;;;;;;46.17;40.22;;;;;;;;;;5012651;28;20069;-65
2021/06/26 06:29:51;;;;;;;42.22;37.15;;;;;;;;;;5012102;28;20056;-65
2021/06/26 06:32:37;;;;;;;46.65;39.65;;;;;;;;;;5012069;28;20076;-66
2021/06/26 06:35:24;;;;;;;42.22;36.42;;;;;;;;;;5012636;28;20064;-65
2021/06/26 06:38:09;;;;;;;46.90;39.65;;;;;;;;;;4997944;28;20595;-66
2021/06/26 06:40:55;;;;;;;47.90;39.05;;;;;;;;;;4992545;28;20173;-66
2021/06/26 06:43:40;;;;;;;43.95;37.95;;;;;;;;;;4997597;28;20128;-66
2021/06/26 06:46:25;;;;;;;45.80;36.78;;;;;;;;;;5011235;28;20129;-66
2021/06/26 06:49:11;;;;;;;41.03;35.20;;;;;;;;;;5012368;28;20049;-66
2021/06/26 06:51:56;;;;;;;45.65;37.60;;;;;;;;;;5011340;28;20519;-66
2021/06/26 06:54:42;;;;;;;42.33;35.28;;;;;;;;;;5012191;28;20096;-65
2021/06/26 06:57:27;;;;;;;42.53;36.95;;;;;;;;;;4997360;28;20060;-66
2021/06/26 07:00:13;;;;;;;39.53;35.22;;;;;;;;;;4995796;28;20105;-66
2021/06/26 07:02:58;;;;;;;41.88;35.30;;;;;;;;;;5007039;28;20073;-66
2021/06/26 07:05:43;;;;;;;43.90;36.58;;;;;;;;;;5031137;28;20042;-66
2021/06/26 07:08:29;;;;;;;45.20;38.28;;;;;;;;;;5011863;28;20177;-66
2021/06/26 07:11:14;;;;;;;42.83;38.22;;;;;;;;;;5019802;28;20511;-67
2021/06/26 07:13:59;;;;;;;44.38;38.63;;;;;;;;;;5032024;28;20461;-66
2021/06/26 07:16:44;;;;;;;45.22;38.30;;;;;;;;;;5031734;28;20060;-66
2021/06/26 07:19:30;;;;;;;40.63;35.67;;;;;;;;;;5031549;28;20185;-67
2021/06/26 07:22:16;;;;;;;39.45;31.92;;;;;;;;;;5031155;28;20057;-69
2021/06/26 07:25:01;;;;;;;37.90;32.67;;;;;;;;;;5031569;28;20491;-66
2021/06/26 07:27:46;;;;;;;36.72;32.63;;;;;;;;;;5031473;28;20049;-66
2021/06/26 07:30:32;;;;;;;37.67;33.35;;;;;;;;;;5031599;28;20180;-67
2021/06/26 07:33:17;;;;;;;35.00;29.33;;;;;;;;;;5031104;28;20100;-66
2021/06/26 07:36:04;;;;;;;36.88;31.77;;;;;;;;;;5031536;28;20054;-66
2021/06/26 07:38:49;;;;;;;40.85;32.88;;;;;;;;;;5031515;28;20057;-66
2021/06/26 07:41:35;;;;;;;38.20;31.83;;;;;;;;;;5030473;28;20115;-67
2021/06/26 07:44:22;;;;;;;35.65;31.85;;;;;;;;;;5031538;28;20052;-65
2021/06/26 07:47:07;;;;;;;34.90;31.17;;;;;;;;;;5031526;28;20044;-66
2021/06/26 07:49:53;;;;;;;33.95;29.48;;;;;;;;;;5031222;28;20108;-67
2021/06/26 07:52:38;;;;;;;32.20;28.45;;;;;;;;;;5030399;28;20038;-66
2021/06/26 07:55:24;;;;;;;34.42;29.60;;;;;;;;;;5031673;28;20076;-66
2021/06/26 07:58:09;;;;;;;30.80;27.23;;;;;;;;;;5026950;28;20123;-67
2021/06/26 08:00:55;;;;;;;28.90;25.80;;;;;;;;;;4996568;28;20049;-66
2021/06/26 08:03:40;;;;;;;28.08;25.08;;;;;;;;;;5025485;28;20041;-66
2021/06/26 08:06:26;;;;;;;33.35;28.73;;;;;;;;;;5031414;28;20087;-66
2021/06/26 08:09:11;;;;;;;28.48;24.20;;;;;;;;;;5031397;28;20056;-66
2021/06/26 08:11:56;;;;;;;29.65;26.60;;;;;;;;;;5032919;28;20049;-66
2021/06/26 08:14:42;;;;;;;29.08;25.23;;;;;;;;;;5034754;28;20506;-66
2021/06/26 08:17:28;;;;;;;27.83;24.38;;;;;;;;;;5034939;28;20060;-67
2021/06/26 08:20:13;;;;;;;25.23;22.13;;;;;;;;;;5034473;28;20137;-66
2021/06/26 08:22:59;;;;;;;25.38;22.67;;;;;;;;;;5034017;28;20045;-66
2021/06/26 08:25:44;;;;;;;26.33;23.52;;;;;;;;;;5034713;28;20118;-66
2021/06/26 08:28:30;;;;;;;26.00;23.20;;;;;;;;;;5034564;28;20044;-66
2021/06/26 08:31:15;;;;;;;19.25;17.35;;;;;;;;;;5034481;28;20403;-67
2021/06/26 08:34:00;;;;;;;21.38;19.15;;;;;;;;;;5018160;28;20067;-67
2021/06/26 08:36:45;;;;;;;21.13;17.38;;;;;;;;;;5034745;28;20052;-66
2021/06/26 08:39:31;;;;;;;19.73;17.50;;;;;;;;;;5034318;28;20510;-66
2021/06/26 08:42:18;;;;;;;17.65;15.65;;;;;;;;;;5034971;28;20176;-67
2021/06/26 08:45:05;;;;;;;20.67;18.20;;;;;;;;;;5006450;28;20096;-66
2021/06/26 08:47:51;;;;;;;18.63;16.70;;;;;;;;;;5025945;28;20037;-67
2021/06/26 08:50:36;;;;;;;19.33;16.77;;;;;;;;;;5007767;28;20188;-66
2021/06/26 08:53:21;;;;;;;18.52;16.63;;;;;;;;;;5024022;28;20519;-66
2021/06/26 08:56:06;;;;;;;16.88;14.20;;;;;;;;;;5022028;28;20073;-66
2021/06/26 08:58:52;;;;;;;14.52;12.57;;;;;;;;;;5015572;28;20439;-67
2021/06/26 09:01:38;;;;;;;10.48;9.48;;;;;;;;;;5029123;28;20418;-66
2021/06/26 09:04:23;;;;;;;15.85;14.15;;;;;;;;;;5034803;28;20068;-66
2021/06/26 09:07:08;;;;;;;14.60;13.07;;;;;;;;;;5035136;28;20047;-66
2021/06/26 09:09:56;;;;;;;15.70;12.63;;;;;;;;;;5034551;28;20049;-66
2021/06/26 09:12:41;;;;;;;19.02;17.08;;;;;;;;;;5034338;28;20123;-67
2021/06/26 09:15:28;;;;;;;17.63;15.93;;;;;;;;;;5035311;28;20057;-66
2021/06/26 09:18:13;;;;;;;17.75;15.15;;;;;;;;;;5034326;28;20048;-66
2021/06/26 09:20:59;;;;;;;14.88;13.15;;;;;;;;;;5033445;28;20407;-66
2021/06/26 09:23:45;;;;;;;13.07;11.07;;;;;;;;;;5014137;28;20042;-66
2021/06/26 09:26:30;;;;;;;11.38;10.18;;;;;;;;;;5014693;28;20045;-66
2021/06/26 09:29:16;;;;;;;11.38;9.45;;;;;;;;;;5014684;28;20046;-66
2021/06/26 09:32:03;;;;;;;11.25;10.15;;;;;;;;;;5004846;28;20041;-67
2021/06/26 09:34:48;;;;;;;10.85;9.75;;;;;;;;;;5033920;28;20056;-66
2021/06/26 09:37:35;;;;;;;12.93;11.63;;;;;;;;;;5018564;28;20045;-66
2021/06/26 09:40:23;;;;;;;12.85;11.65;;;;;;;;;;5018534;28;20065;-67
2021/06/26 09:43:09;;;;;;;13.45;8.98;;;;;;;;;;5032653;28;20042;-66
2021/06/26 09:46:06;;;;;;;15.70;11.43;;;;;;;;;;5033956;28;20212;-66
2021/06/26 09:48:51;;;;;;;10.98;9.88;;;;;;;;;;5033490;28;20621;-65
2021/06/26 09:51:36;;;;;;;11.27;10.13;;;;;;;;;;5018525;28;20168;-66
2021/06/26 09:54:26;;;;;;;10.27;9.27;;;;;;;;;;5031375;28;20509;-66
2021/06/26 09:57:11;;;;;;;11.80;10.07;;;;;;;;;;5032629;28;20052;-65
2021/06/26 09:59:57;;;;;;;11.80;9.27;;;;;;;;;;5017871;28;20083;-66
2021/06/26 10:02:43;;;;;;;14.30;8.20;;;;;;;;;;5017255;28;20571;-66
2021/06/26 10:05:28;;;;;;;9.02;8.13;;;;;;;;;;5033186;28;20048;-66
2021/06/26 10:08:14;;;;;;;9.10;8.20;;;;;;;;;;5071145;22;20111;-64
2021/06/26 10:10:59;;;;;;;9.48;7.55;;;;;;;;;;5012836;28;20057;-64
2021/06/26 10:13:44;;;;;;;8.02;7.00;;;;;;;;;;5010873;28;20092;-63
2021/06/26 10:16:30;;;;;;;7.82;7.00;;;;;;;;;;5012721;28;20054;-63
2021/06/26 10:19:15;;;;;;;8.07;7.32;;;;;;;;;;5012291;28;20454;-63
2021/06/26 10:22:01;;;;;;;9.15;8.25;;;;;;;;;;5012837;28;20125;-63
2021/06/26 10:24:47;;;;;;;7.75;6.88;;;;;;;;;;5017776;28;20049;-64
2021/06/26 10:27:32;;;;;;;7.85;6.80;;;;;;;;;;5026123;28;20126;-63
2021/06/26 10:30:17;;;;;;;7.13;6.43;;;;;;;;;;5012580;28;20057;-63
2021/06/26 10:33:04;;;;;;;5.95;5.30;;;;;;;;;;5012884;28;20037;-64
2021/06/26 10:35:53;;;;;;;8.02;6.40;;;;;;;;;;5028580;28;20148;-64
2021/06/26 10:38:41;;;;;;;6.03;5.35;;;;;;;;;;5032310;28;20463;-64
2021/06/26 10:41:26;;;;;;;2.50;2.30;;;;;;;;;;5031965;28;20187;-64
2021/06/26 10:44:12;;;;;;;1.58;1.10;;;;;;;;;;5028904;28;20049;-64
2021/06/26 10:46:57;;;;;;;1.83;1.73;;;;;;;;;;5012688;28;20539;-64
2021/06/26 10:49:43;;;;;;;2.72;2.53;;;;;;;;;;4997290;28;20060;-64
2021/06/26 10:52:28;;;;;;;5.88;4.28;;;;;;;;;;5012508;28;20061;-63
2021/06/26 10:55:13;;;;;;;5.78;5.28;;;;;;;;;;4999129;28;20053;-63
2021/06/26 10:57:58;;;;;;;6.43;5.78;;;;;;;;;;5011095;28;20053;-63
2021/06/26 11:00:44;;;;;;;5.80;5.30;;;;;;;;;;5011944;28;20045;-63
2021/06/26 11:03:32;;;;;;;4.63;4.18;;;;;;;;;;5012112;28;20056;-63
2021/06/26 11:06:27;;;;;;;5.30;4.78;;;;;;;;;;5010431;28;20049;-63
2021/06/26 11:09:13;;;;;;;5.82;5.25;;;;;;;;;;5012030;28;20057;-63
2021/06/26 11:12:07;;;;;;;5.90;5.30;;;;;;;;;;5011936;28;20125;-63
2021/06/26 11:14:56;;;;;;;6.43;4.07;;;;;;;;;;5011981;28;20054;-63
2021/06/26 11:17:41;;;;;;;4.68;4.28;;;;;;;;;;5012012;28;20443;-63
2021/06/26 11:20:27;;;;;;;5.00;4.50;;;;;;;;;;5010503;28;20702;-63
2021/06/26 11:23:16;;;;;;;6.93;4.72;;;;;;;;;;5012189;28;20069;-63
2021/06/26 11:26:02;;;;;;;5.18;4.60;;;;;;;;;;5011992;28;20050;-63
2021/06/26 11:28:47;;;;;;;5.78;5.28;;;;;;;;;;5011950;28;20050;-63
2021/06/26 11:31:34;;;;;;;4.57;4.10;;;;;;;;;;5011482;28;20147;-63
2021/06/26 11:34:20;;;;;;;4.63;3.67;;;;;;;;;;5011761;28;20061;-63
2021/06/26 11:37:07;;;;;;;4.50;4.10;;;;;;;;;;5011690;28;20046;-63
2021/06/26 11:39:52;;;;;;;5.38;4.30;;;;;;;;;;5009829;28;20048;-63
2021/06/26 11:42:38;;;;;;;7.65;4.45;;;;;;;;;;5011822;28;20053;-64
2021/06/26 11:45:27;;;;;;;4.22;3.88;;;;;;;;;;4997995;28;20103;-64
2021/06/26 11:48:17;;;;;;;5.88;4.63;;;;;;;;;;5000585;28;20046;-64
2021/06/26 11:51:05;;;;;;;5.15;3.97;;;;;;;;;;5013912;28;20052;-64
2021/06/26 11:53:51;;;;;;;4.18;3.60;;;;;;;;;;5015377;28;20049;-64
2021/06/26 11:56:38;;;;;;;3.35;2.70;;;;;;;;;;5015418;28;20050;-64
2021/06/26 11:59:23;;;;;;;2.70;2.28;;;;;;;;;;5015132;28;20520;-64
2021/06/26 12:02:09;;;;;;;2.13;1.90;;;;;;;;;;5014591;28;20056;-64
2021/06/26 12:04:54;;;;;;;1.45;1.35;;;;;;;;;;5015152;28;20133;-64
2021/06/26 12:07:39;;;;;;;2.03;1.83;;;;;;;;;;5015110;28;20108;-64
2021/06/26 12:10:25;;;;;;;2.65;1.95;;;;;;;;;;5015210;28;20496;-64
2021/06/26 12:13:12;;;;;;;1.77;1.65;;;;;;;;;;4995253;28;20049;-64
2021/06/26 12:15:57;;;;;;;3.05;1.58;;;;;;;;;;5007953;28;20048;-64
2021/06/26 12:18:52;;;;;;;1.52;1.42;;;;;;;;;;5033643;28;20052;-63
2021/06/26 12:21:41;;;;;;;1.17;1.08;;;;;;;;;;5018492;28;20060;-64
2021/06/26 12:24:35;;;;;;;2.80;1.60;;;;;;;;;;5014855;28;20060;-63
2021/06/26 12:27:22;;;;;;;1.50;1.40;;;;;;;;;;5014756;28;20046;-63
2021/06/26 12:30:08;;;;;;;1.50;1.40;;;;;;;;;;5012905;28;20214;-63
2021/06/26 12:33:02;;;;;;;1.77;1.40;;;;;;;;;;4995214;28;20057;-63
2021/06/26 12:35:47;;;;;;;2.10;1.45;;;;;;;;;;4995363;28;20081;-64
2021/06/26 12:38:36;;;;;;;2.53;2.33;;;;;;;;;;4995282;28;20046;-64
2021/06/26 12:41:22;;;;;;;3.90;3.15;;;;;;;;;;5003757;28;20057;-63
2021/06/26 12:44:07;;;;;;;3.65;2.50;;;;;;;;;;5014490;28;20057;-64
2021/06/26 12:46:53;;;;;;;2.38;2.17;;;;;;;;;;5014030;28;20045;-64
2021/06/26 12:49:38;;;;;;;2.78;2.58;;;;;;;;;;5013149;28;20072;-63
2021/06/26 12:52:33;;;;;;;3.00;2.80;;;;;;;;;;5000239;28;20096;-64
2021/06/26 12:55:18;;;;;;;3.85;3.55;;;;;;;;;;5014052;28;20109;-63
2021/06/26 12:58:08;;;;;;;3.50;3.20;;;;;;;;;;5013492;28;20132;-63
2021/06/26 13:00:56;;;;;;;3.40;3.10;;;;;;;;;;5013188;28;20060;-63
2021/06/26 13:03:51;;;;;;;3.50;3.20;;;;;;;;;;4994504;28;20562;-63
2021/06/26 13:06:52;;;;;;;5.40;3.20;;;;;;;;;;4994362;28;20053;-63
2021/06/26 13:09:43;;;;;;;3.17;2.70;;;;;;;;;;4994093;28;20053;-63
2021/06/26 13:12:28;;;;;;;3.03;2.83;;;;;;;;;;5003939;28;20520;-63
2021/06/26 13:15:14;;;;;;;3.28;3.08;;;;;;;;;;5012295;28;20076;-63
2021/06/26 13:17:59;;;;;;;3.10;2.85;;;;;;;;;;4994162;28;20065;-63
2021/06/26 13:20:45;;;;;;;5.20;3.90;;;;;;;;;;4994037;28;20050;-63
2021/06/26 13:23:30;;;;;;;4.80;3.85;;;;;;;;;;5009035;28;20420;-63
2021/06/26 13:26:15;;;;;;;7.25;4.10;;;;;;;;;;5013546;28;20066;-64
2021/06/26 13:29:01;;;;;;;4.18;2.92;;;;;;;;;;5013518;28;20042;-63
2021/06/26 13:31:47;;;;;;;4.40;3.47;;;;;;;;;;5013468;28;20607;-63
2021/06/26 13:34:32;;;;;;;3.40;3.13;;;;;;;;;;5013487;28;20081;-63
2021/06/26 13:37:19;;;;;;;3.13;2.88;;;;;;;;;;5012403;28;20546;-63
2021/06/26 13:40:04;;;;;;;3.47;3.17;;;;;;;;;;5013301;28;20568;-63
2021/06/26 13:42:49;;;;;;;3.92;3.53;;;;;;;;;;5012133;28;20049;-63
2021/06/26 13:45:34;;;;;;;5.30;3.63;;;;;;;;;;5013193;28;20049;-63
2021/06/26 13:48:20;;;;;;;3.25;2.85;;;;;;;;;;5013149;28;20518;-63
2021/06/26 13:51:05;;;;;;;4.70;3.88;;;;;;;;;;5013140;28;20045;-63
2021/06/26 13:53:51;;;;;;;4.35;3.95;;;;;;;;;;5012630;28;20105;-63
2021/06/26 13:56:38;;;;;;;6.40;4.22;;;;;;;;;;5012679;28;20056;-63
2021/06/26 13:59:23;;;;;;;10.50;5.32;;;;;;;;;;5013093;28;20057;-64
2021/06/26 14:02:08;;;;;;;4.80;4.20;;;;;;;;;;5013245;28;20077;-63
2021/06/26 14:04:54;;;;;;;4.25;3.88;;;;;;;;;;5012211;28;20046;-63
2021/06/26 14:07:39;;;;;;;4.07;3.67;;;;;;;;;;5012413;28;20056;-63
2021/06/26 14:10:25;;;;;;;4.05;3.55;;;;;;;;;;5012396;28;20050;-63
2021/06/26 14:13:10;;;;;;;4.10;3.70;;;;;;;;;;5012798;28;20165;-63
2021/06/26 14:15:56;;;;;;;3.45;3.15;;;;;;;;;;5012634;28;20052;-63
2021/06/26 14:18:41;;;;;;;3.65;3.35;;;;;;;;;;5012532;28;20053;-63
2021/06/26 14:21:26;;;;;;;4.00;3.60;;;;;;;;;;4997604;28;20092;-63
2021/06/26 14:24:12;;;;;;;4.28;3.85;;;;;;;;;;5011210;28;20395;-63
2021/06/26 14:26:57;;;;;;;4.35;4.00;;;;;;;;;;5028385;28;20179;-63
2021/06/26 14:29:43;;;;;;;5.82;3.50;;;;;;;;;;5032125;28;20053;-63
2021/06/26 14:32:28;;;;;;;4.05;2.92;;;;;;;;;;5032230;28;20064;-63
2021/06/26 14:35:14;;;;;;;3.67;3.38;;;;;;;;;;5028960;28;20175;-63
2021/06/26 14:37:59;;;;;;;3.95;3.40;;;;;;;;;;5012352;28;20124;-63
2021/06/26 14:40:44;;;;;;;3.85;3.55;;;;;;;;;;5012204;28;20045;-63
2021/06/26 14:43:30;;;;;;;3.90;3.60;;;;;;;;;;5012527;28;20128;-63
2021/06/26 14:46:15;;;;;;;4.05;3.45;;;;;;;;;;5011056;28;20092;-63
2021/06/26 14:49:01;;;;;;;3.70;3.17;;;;;;;;;;5012300;28;20409;-63
2021/06/26 14:51:46;;;;;;;4.85;3.28;;;;;;;;;;5012417;28;20052;-64
2021/06/26 14:54:31;;;;;;;3.72;3.42;;;;;;;;;;5011429;28;20048;-63
2021/06/26 14:57:17;;;;;;;4.10;3.70;;;;;;;;;;5011508;28;20177;-63
2021/06/26 15:00:02;;;;;;;4.50;3.20;;;;;;;;;;5012032;28;20056;-63
2021/06/26 15:02:49;;;;;;;3.95;3.65;;;;;;;;;;5012195;28;20401;-63
2021/06/26 15:05:35;;;;;;;4.53;3.60;;;;;;;;;;5011136;28;20089;-63
2021/06/26 15:08:20;;;;;;;9.90;4.00;;;;;;;;;;5011992;28;20113;-63
2021/06/26 15:11:06;;;;;;;4.43;3.83;;;;;;;;;;5012134;28;20048;-63
2021/06/26 15:13:51;;;;;;;3.42;2.97;;;;;;;;;;5012233;28;20052;-63
2021/06/26 15:16:36;;;;;;;4.32;3.92;;;;;;;;;;5011073;28;20515;-63
2021/06/26 15:19:22;;;;;;;3.50;3.20;;;;;;;;;;5009191;28;20061;-63
2021/06/26 15:22:07;;;;;;;3.97;3.67;;;;;;;;;;5015486;28;20045;-63
2021/06/26 15:24:52;;;;;;;4.55;3.75;;;;;;;;;;5014762;28;20048;-63
2021/06/26 15:27:38;;;;;;;3.88;3.47;;;;;;;;;;5015757;28;20507;-63
2021/06/26 15:30:23;;;;;;;4.00;3.67;;;;;;;;;;5015597;28;20046;-63
2021/06/26 15:33:09;;;;;;;4.03;3.63;;;;;;;;;;5015763;28;20069;-63
2021/06/26 15:35:54;;;;;;;4.55;3.50;;;;;;;;;;5014890;28;20187;-63
2021/06/26 15:38:39;;;;;;;3.78;3.47;;;;;;;;;;5015858;28;20515;-63
2021/06/26 15:41:25;;;;;;;4.18;3.88;;;;;;;;;;5015348;28;20504;-63
2021/06/26 15:44:10;;;;;;;6.50;4.05;;;;;;;;;;5015745;28;20399;-63
2021/06/26 15:46:56;;;;;;;4.22;3.83;;;;;;;;;;5014524;28;20053;-63
2021/06/26 15:49:41;;;;;;;4.22;3.80;;;;;;;;;;5015614;28;20049;-63
2021/06/26 15:52:26;;;;;;;3.70;3.40;;;;;;;;;;5015230;28;20053;-63
2021/06/26 15:55:12;;;;;;;8.95;4.32;;;;;;;;;;5015571;28;20105;-63
2021/06/26 15:57:57;;;;;;;4.20;3.80;;;;;;;;;;5014455;28;20543;-63
2021/06/26 16:00:43;;;;;;;4.13;3.72;;;;;;;;;;5014115;28;20076;-63
2021/06/26 16:03:28;;;;;;;3.70;3.40;;;;;;;;;;5015578;28;20053;-63
2021/06/26 16:06:13;;;;;;;5.65;4.15;;;;;;;;;;5014456;28;20152;-62
2021/06/26 16:08:59;;;;;;;5.22;3.45;;;;;;;;;;5030130;23;20903;-65
2021/06/26 16:11:44;;;;;;;4.85;3.95;;;;;;;;;;5054510;28;20099;-65
2021/06/26 16:14:29;;;;;;;4.10;3.70;;;;;;;;;;5053930;28;20501;-65
2021/06/26 16:17:14;;;;;;;3.67;3.30;;;;;;;;;;5053872;28;20176;-65